Time;durP1;ratioP1;P1;durP2;ratioP2;P2;SDS_P1;SDS_P2;PMS_P1;PMS_P2;Temp;Humidity;BMP_temperature;BMP_pressure;BME280_temperature;BME280_humidity;BME280_pressure;Samples;Min_cycle;Max_cycle;Signal;HPM_P1;HPM_P2
2021/07/21 00:00:26;;;;;;;14.82;8.32;;;14.30;99.90;;;;;;5109345;28;20114;-77
2021/07/21 00:02:53;;;;;;;16.10;8.27;;;14.30;99.90;;;;;;5101374;28;20093;-77
2021/07/21 00:05:20;;;;;;;11.63;8.43;;;14.30;99.90;;;;;;5110222;28;20047;-76
2021/07/21 00:07:46;;;;;;;14.05;8.43;;;14.30;99.90;;;;;;5110834;28;20051;-76
2021/07/21 00:10:14;;;;;;;;;;;14.30;99.90;;;;;;5110534;28;20496;-77
2021/07/21 00:15:26;;;;;;;13.85;8.25;;;14.20;99.90;;;;;;5095443;28;19954;-77
2021/07/21 00:18:00;;;;;;;13.02;8.50;;;14.20;99.90;;;;;;5103427;28;20110;-78
2021/07/21 00:20:27;;;;;;;12.25;8.32;;;14.20;99.90;;;;;;5099450;28;20118;-78
2021/07/21 00:22:53;;;;;;;16.13;9.98;;;14.20;99.90;;;;;;5110567;28;20047;-77
2021/07/21 00:25:19;;;;;;;16.45;9.52;;;14.20;99.90;;;;;;5110345;28;20040;-77
2021/07/21 00:27:46;;;;;;;16.63;9.43;;;14.10;99.90;;;;;;5110948;28;20047;-77
2021/07/21 00:30:17;;;;;;;15.35;8.85;;;14.10;99.90;;;;;;5109365;28;20043;-76
2021/07/21 00:32:43;;;;;;;15.20;10.23;;;14.10;99.90;;;;;;5110562;28;20040;-77
2021/07/21 00:35:12;;;;;;;14.07;9.52;;;14.00;99.90;;;;;;5110476;28;20476;-77
2021/07/21 00:37:38;;;;;;;14.82;9.73;;;14.00;99.90;;;;;;5109181;28;20039;-77
2021/07/21 00:40:09;;;;;;;17.25;9.93;;;13.90;99.90;;;;;;5110150;28;20138;-77
2021/07/21 00:42:35;;;;;;;16.52;10.43;;;13.90;99.90;;;;;;5092760;28;20487;-77
2021/07/21 00:45:01;;;;;;;;;;;13.80;99.90;;;;;;5111413;28;20070;-77
2021/07/21 00:47:27;;;;;;;16.77;10.70;;;13.80;99.90;;;;;;5110089;28;19951;-77
2021/07/21 00:49:53;;;;;;;;;;;13.70;99.90;;;;;;5108769;28;20495;-76
2021/07/21 00:52:18;;;;;;;16.70;10.68;;;13.70;99.90;;;;;;5109693;28;19916;-76
2021/07/21 00:54:45;;;;;;;15.73;9.82;;;13.70;99.90;;;;;;5102228;28;20480;-76
2021/07/21 00:57:12;;;;;;;15.38;9.43;;;13.70;99.90;;;;;;5108752;28;20100;-76
2021/07/21 00:59:38;;;;;;;17.08;10.60;;;13.70;99.90;;;;;;5091073;28;20047;-77
2021/07/21 01:02:04;;;;;;;15.93;10.23;;;13.70;99.90;;;;;;5100693;28;20039;-78
2021/07/21 01:04:32;;;;;;;16.25;9.57;;;13.60;99.90;;;;;;5083814;28;20060;-79
2021/07/21 01:06:59;;;;;;;17.08;10.50;;;13.50;99.90;;;;;;5106330;28;20032;-77
2021/07/21 01:09:26;;;;;;;15.60;9.98;;;13.50;99.90;;;;;;5099902;28;20409;-77
2021/07/21 01:12:16;;;;;;;16.92;10.50;;;13.50;99.90;;;;;;5104693;28;20426;-77
2021/07/21 01:14:54;;;;;;;16.17;9.60;;;13.50;99.90;;;;;;5086601;28;20109;-79
2021/07/21 01:17:26;;;;;;;14.77;9.00;;;13.40;99.90;;;;;;5103882;28;20126;-77
2021/07/21 01:20:11;;;;;;;14.70;9.65;;;13.40;99.90;;;;;;5110945;28;20040;-76
2021/07/21 01:22:41;;;;;;;16.63;9.90;;;13.30;99.90;;;;;;5110483;28;20036;-78
2021/07/21 01:25:26;;;;;;;22.00;11.35;;;13.30;99.90;;;;;;5104136;28;20043;-77
2021/07/21 01:27:56;;;;;;;16.30;9.75;;;13.30;99.90;;;;;;5097744;28;20394;-76
2021/07/21 01:30:24;;;;;;;20.15;10.40;;;13.30;99.90;;;;;;5101444;28;20075;-78
2021/07/21 01:32:57;;;;;;;18.23;10.23;;;13.40;99.90;;;;;;5106147;28;20497;-79
2021/07/21 01:35:26;;;;;;;17.60;10.68;;;13.40;99.90;;;;;;5113316;28;20039;-77
2021/07/21 01:38:04;;;;;;;17.23;10.05;;;13.40;99.90;;;;;;5108071;28;20085;-77
2021/07/21 01:40:38;;;;;;;15.90;10.02;;;13.40;99.90;;;;;;5102444;28;20445;-76
2021/07/21 01:43:07;;;;;;;13.90;8.82;;;13.50;99.90;;;;;;5111186;28;20039;-76
2021/07/21 01:45:34;;;;;;;18.95;10.93;;;13.60;99.90;;;;;;5107579;28;20036;-77
2021/07/21 01:48:01;;;;;;;14.90;8.88;;;13.60;99.90;;;;;;5107907;28;20040;-76
2021/07/21 01:50:30;;;;;;;14.93;9.68;;;13.60;99.90;;;;;;5101015;28;20485;-76
2021/07/21 01:52:59;;;;;;;15.35;9.18;;;13.60;99.90;;;;;;5110144;28;20040;-76
2021/07/21 01:55:26;;;;;;;15.43;9.10;;;13.60;99.90;;;;;;5107550;28;20039;-76
2021/07/21 01:57:53;;;;;;;16.17;9.18;;;13.60;99.90;;;;;;5095380;28;20473;-76
2021/07/21 02:00:19;;;;;;;17.35;9.45;;;13.50;99.90;;;;;;5113267;28;20032;-76
2021/07/21 02:02:54;;;;;;;;;;;13.50;99.90;;;;;;5110648;28;20507;-76
2021/07/21 02:05:22;;;;;;;16.30;9.75;;;13.50;99.90;;;;;;5104907;28;19916;-79
2021/07/21 02:07:49;;;;;;;17.70;9.88;;;13.40;99.90;;;;;;5108236;28;20465;-78
2021/07/21 02:10:24;;;;;;;14.48;8.98;;;13.40;99.90;;;;;;5109255;28;20059;-77
2021/07/21 02:13:04;;;;;;;15.85;8.98;;;13.40;99.90;;;;;;5110724;28;20035;-78
2021/07/21 02:15:30;;;;;;;16.63;9.93;;;13.40;99.90;;;;;;5110343;28;20447;-79
2021/07/21 02:17:56;;;;;;;16.50;9.93;;;13.30;99.90;;;;;;5112964;28;20106;-78
2021/07/21 02:20:26;;;;;;;15.63;10.25;;;13.30;99.90;;;;;;5110316;28;20122;-77
2021/07/21 02:22:52;;;;;;;17.10;10.27;;;13.40;99.90;;;;;;5113229;28;20036;-78
2021/07/21 02:25:22;;;;;;;19.13;9.93;;;13.30;99.90;;;;;;5112446;28;20062;-77
2021/07/21 02:27:48;;;;;;;17.30;9.75;;;13.30;99.90;;;;;;5113261;28;20036;-78
2021/07/21 02:30:16;;;;;;;19.08;10.60;;;13.30;99.90;;;;;;5091082;28;20048;-77
2021/07/21 02:32:50;;;;;;;15.48;9.93;;;13.30;99.90;;;;;;5094339;28;20110;-77
2021/07/21 02:35:21;;;;;;;15.77;8.90;;;13.40;99.90;;;;;;5110746;28;20110;-77
2021/07/21 02:37:48;;;;;;;17.42;9.55;;;13.40;99.90;;;;;;5087284;28;20084;-77
2021/07/21 02:40:16;;;;;;;17.85;10.55;;;13.40;99.90;;;;;;5107557;28;20453;-77
2021/07/21 02:42:41;;;;;;;18.05;9.95;;;13.40;99.90;;;;;;5111509;28;20031;-78
2021/07/21 02:45:08;;;;;;;17.23;10.25;;;13.50;99.90;;;;;;5112785;28;20027;-77
2021/07/21 02:47:33;;;;;;;17.35;10.65;;;13.50;99.90;;;;;;5100935;28;20044;-77
2021/07/21 02:49:59;;;;;;;17.90;11.02;;;13.60;99.90;;;;;;5113065;28;20438;-77
2021/07/21 02:52:44;;;;;;;;;;;13.70;99.90;;;;;;5112951;28;20032;-77
2021/07/21 02:55:15;;;;;;;18.05;10.63;;;13.80;99.90;;;;;;5105066;28;20006;-77
2021/07/21 02:57:48;;;;;;;18.92;11.38;;;13.90;99.90;;;;;;5107646;28;20035;-77
2021/07/21 03:00:17;;;;;;;19.77;10.45;;;14.00;99.90;;;;;;5110934;28;20074;-77
2021/07/21 03:02:45;;;;;;;16.23;10.23;;;14.10;99.90;;;;;;5106724;28;20051;-77
2021/07/21 03:05:13;;;;;;;17.33;10.05;;;14.10;99.90;;;;;;5094505;28;20420;-78
2021/07/21 03:07:44;;;;;;;18.83;10.68;;;14.20;99.90;;;;;;5112556;28;20415;-77
2021/07/21 03:10:12;;;;;;;16.30;10.30;;;14.30;99.90;;;;;;5112212;28;20035;-77
2021/07/21 03:12:40;;;;;;;18.80;11.38;;;14.40;99.90;;;;;;5112445;28;20032;-77
2021/07/21 03:15:07;;;;;;;17.38;9.90;;;14.40;99.90;;;;;;5112159;28;20036;-77
2021/07/21 03:17:38;;;;;;;18.50;9.82;;;14.50;99.90;;;;;;5101042;28;20039;-77
2021/07/21 03:20:07;;;;;;;15.82;9.98;;;14.50;99.90;;;;;;5112310;28;20480;-77
2021/07/21 03:22:36;;;;;;;17.05;9.63;;;14.60;99.90;;;;;;5089408;28;20092;-77
2021/07/21 03:25:05;;;;;;;16.50;9.82;;;14.60;99.90;;;;;;5111433;28;20039;-77
2021/07/21 03:27:31;;;;;;;14.70;8.98;;;14.60;99.90;;;;;;5111505;28;20043;-77
2021/07/21 03:29:58;;;;;;;11.05;7.72;;;14.60;99.90;;;;;;5107242;28;20104;-77
2021/07/21 03:32:27;;;;;;;14.98;9.13;;;14.70;99.90;;;;;;5110152;28;20036;-77
2021/07/21 03:34:54;;;;;;;13.63;8.43;;;14.80;99.90;;;;;;5111282;28;20058;-77
2021/07/21 03:37:21;;;;;;;13.52;8.63;;;14.80;99.90;;;;;;5092780;28;20053;-75
2021/07/21 03:39:57;;;;;;;13.57;8.50;;;14.90;99.90;;;;;;5111393;28;20043;-77
2021/07/21 03:42:25;;;;;;;13.48;8.98;;;14.90;99.90;;;;;;5112029;28;20043;-80
2021/07/21 03:44:56;;;;;;;17.23;9.07;;;14.90;99.90;;;;;;5107696;28;20035;-77
2021/07/21 03:47:22;;;;;;;12.98;7.75;;;14.90;99.90;;;;;;5121338;27;20046;-77
2021/07/21 03:49:49;;;;;;;14.27;8.82;;;14.90;99.90;;;;;;5108533;28;20032;-76
2021/07/21 03:52:16;;;;;;;16.38;9.15;;;15.00;99.90;;;;;;5091318;28;20055;-77
2021/07/21 03:54:43;;;;;;;15.27;8.10;;;15.00;99.90;;;;;;5092347;28;20027;-77
2021/07/21 03:57:10;;;;;;;16.17;9.02;;;15.00;99.90;;;;;;5087844;28;20032;-78
2021/07/21 03:59:38;;;;;;;14.02;8.98;;;14.90;99.90;;;;;;5089862;28;20058;-80
2021/07/21 04:02:06;;;;;;;13.32;8.65;;;14.80;99.90;;;;;;5073030;28;20051;-77
2021/07/21 04:04:38;;;;;;;15.10;9.35;;;14.70;99.90;;;;;;5111206;28;20036;-77
2021/07/21 04:07:06;;;;;;;13.18;8.80;;;14.70;99.90;;;;;;5090764;28;20032;-77
2021/07/21 04:09:34;;;;;;;17.15;9.77;;;14.70;99.90;;;;;;5109016;28;20485;-77
2021/07/21 04:12:02;;;;;;;13.27;8.77;;;14.60;99.90;;;;;;5092293;28;20040;-78
2021/07/21 04:14:32;;;;;;;15.63;9.50;;;14.60;99.90;;;;;;5111281;28;20059;-80
2021/07/21 04:16:58;;;;;;;;;;;14.60;99.90;;;;;;5089672;28;20035;-78
2021/07/21 04:19:25;;;;;;;17.83;9.68;;;14.60;99.90;;;;;;5110957;28;20007;-78
2021/07/21 04:21:53;;;;;;;18.15;10.77;;;14.60;99.90;;;;;;5090735;28;20043;-79
2021/07/21 04:24:25;;;;;;;16.02;9.13;;;14.60;99.90;;;;;;5094759;28;20039;-77
2021/07/21 04:26:52;;;;;;;15.55;9.18;;;14.70;99.90;;;;;;5092422;28;20036;-78
2021/07/21 04:29:22;;;;;;;16.70;9.30;;;14.70;99.90;;;;;;5113536;28;20051;-80
2021/07/21 04:31:49;;;;;;;14.35;9.07;;;14.70;99.90;;;;;;5085905;28;20172;-77
2021/07/21 04:34:17;;;;;;;15.27;9.73;;;14.80;99.90;;;;;;5110761;28;20047;-79
2021/07/21 04:36:45;;;;;;;15.45;9.75;;;14.80;99.90;;;;;;5091127;28;20043;-80
2021/07/21 04:39:18;;;;;;;18.00;10.68;;;14.90;99.90;;;;;;5110492;28;20104;-79
2021/07/21 04:41:46;;;;;;;16.80;9.70;;;15.00;99.90;;;;;;5112150;28;20039;-80
2021/07/21 04:44:13;;;;;;;15.73;10.07;;;15.10;99.90;;;;;;5112261;28;20109;-80
2021/07/21 04:46:39;;;;;;;15.80;9.32;;;15.20;99.90;;;;;;5111436;28;20055;-80
2021/07/21 04:49:06;;;;;;;15.98;9.60;;;15.20;99.90;;;;;;5090735;28;20036;-79
2021/07/21 04:51:33;;;;;;;16.92;9.73;;;15.30;99.90;;;;;;5090447;28;20042;-77
2021/07/21 04:54:04;;;;;;;15.15;9.20;;;15.40;99.90;;;;;;5075574;28;20101;-79
2021/07/21 04:56:30;;;;;;;16.02;9.50;;;15.50;99.90;;;;;;5101007;28;20039;-77
2021/07/21 04:58:56;;;;;;;12.95;8.95;;;15.50;99.90;;;;;;5082773;28;20105;-79
2021/07/21 05:01:22;;;;;;;15.07;9.35;;;15.60;99.90;;;;;;5072476;28;20395;-77
2021/07/21 05:03:47;;;;;;;;;;;15.70;99.90;;;;;;5069673;28;20443;-78
2021/07/21 05:06:14;;;;;;;19.08;9.23;;;15.70;99.90;;;;;;5073428;28;19958;-77
2021/07/21 05:08:40;;;;;;;15.30;8.75;;;15.80;99.90;;;;;;5110086;28;20039;-79
2021/07/21 05:11:06;;;;;;;14.15;9.55;;;15.90;99.90;;;;;;5073431;28;20480;-78
2021/07/21 05:13:36;;;;;;;14.25;8.90;;;15.90;99.90;;;;;;5069530;28;20036;-78
2021/07/21 05:16:02;;;;;;;12.85;8.20;;;15.90;99.90;;;;;;5065329;28;20043;-79
2021/07/21 05:18:28;;;;;;;15.02;8.82;;;16.00;99.90;;;;;;5077686;28;20051;-79
2021/07/21 05:20:53;;;;;;;;;;;16.00;99.90;;;;;;5084388;28;20769;-78
2021/07/21 05:23:20;;;;;;;12.65;8.23;;;16.00;99.90;;;;;;5076745;28;19916;-78
2021/07/21 05:25:46;;;;;;;12.00;8.45;;;16.10;99.90;;;;;;5082063;28;20120;-80
2021/07/21 05:28:12;;;;;;;12.95;8.20;;;16.10;99.90;;;;;;5067637;28;20431;-78
2021/07/21 05:30:37;;;;;;;;;;;16.30;99.90;;;;;;5096821;28;20461;-79
2021/07/21 05:33:04;;;;;;;13.82;8.30;;;16.30;99.90;;;;;;5076513;28;19928;-77
2021/07/21 05:35:30;;;;;;;13.75;7.60;;;16.40;99.90;;;;;;5111729;28;20071;-80
2021/07/21 05:37:56;;;;;;;12.48;7.65;;;16.60;99.90;;;;;;5053632;28;20073;-81
2021/07/21 05:40:23;;;;;;;13.63;8.38;;;16.70;99.90;;;;;;5081842;28;20032;-78
2021/07/21 05:42:49;;;;;;;14.73;8.45;;;16.80;99.90;;;;;;5077656;28;20546;-80
2021/07/21 05:45:15;;;;;;;11.43;7.53;;;16.90;99.90;;;;;;5083523;28;20040;-78
2021/07/21 05:47:41;;;;;;;11.32;7.43;;;17.00;99.90;;;;;;5065167;28;20039;-80
2021/07/21 05:50:07;;;;;;;;;;;17.00;99.90;;;;;;5081407;28;20039;-79
2021/07/21 05:52:34;;;;;;;13.70;7.50;;;17.10;99.90;;;;;;5077187;28;20026;-78
2021/07/21 05:55:00;;;;;;;11.20;6.50;;;17.10;99.90;;;;;;5075203;28;20035;-80
2021/07/21 05:57:25;;;;;;;;;;;17.20;99.90;;;;;;5064883;28;20378;-79
2021/07/21 05:59:52;;;;;;;10.68;7.30;;;17.30;99.90;;;;;;5077185;28;20316;-79
2021/07/21 06:02:19;;;;;;;10.88;7.45;;;17.30;99.90;;;;;;5097518;28;20500;-78
2021/07/21 06:04:45;;;;;;;11.73;7.25;;;17.30;99.90;;;;;;5063700;28;20031;-79
2021/07/21 06:07:16;;;;;;;11.68;7.15;;;17.30;99.90;;;;;;5073445;28;21194;-78
2021/07/21 06:09:42;;;;;;;11.52;7.05;;;17.30;99.90;;;;;;5099873;28;20040;-77
2021/07/21 06:12:08;;;;;;;;;;;17.30;99.90;;;;;;5100817;28;20562;-79
2021/07/21 06:14:34;;;;;;;11.57;6.93;;;17.40;99.90;;;;;;5103084;28;19926;-80
2021/07/21 06:17:00;;;;;;;;;;;17.60;99.90;;;;;;5080182;28;20038;-79
2021/07/21 06:19:26;;;;;;;10.20;6.20;;;17.70;99.90;;;;;;5078147;28;20306;-80
2021/07/21 06:21:52;;;;;;;;;;;17.80;99.90;;;;;;5081508;28;20478;-79
2021/07/21 06:24:18;;;;;;;11.85;7.13;;;17.90;99.90;;;;;;5080329;28;19984;-80
2021/07/21 06:26:44;;;;;;;9.38;6.30;;;18.10;99.90;;;;;;5099163;28;20043;-80
2021/07/21 06:29:10;;;;;;;;;;;18.20;99.90;;;;;;5049940;28;20042;-80
2021/07/21 06:31:39;;;;;;;9.45;6.38;;;18.30;99.90;;;;;;5093613;28;20037;-79
2021/07/21 06:34:04;;;;;;;;;;;18.40;99.90;;;;;;5050631;28;20560;-79
2021/07/21 06:36:32;;;;;;;10.27;6.20;;;18.40;99.90;;;;;;5065117;28;20380;-79
2021/07/21 06:38:57;;;;;;;;;;;18.50;99.90;;;;;;5079266;28;20031;-78
2021/07/21 06:41:23;;;;;;;9.57;5.38;;;18.60;99.90;;;;;;5099403;28;19946;-79
2021/07/21 06:43:52;;;;;;;;;;;18.70;99.90;;;;;;5077877;28;20131;-79
2021/07/21 06:46:19;;;;;;;8.90;5.70;;;18.80;99.90;;;;;;5096451;28;20282;-79
2021/07/21 06:48:45;;;;;;;10.20;6.13;;;18.80;99.90;;;;;;5096199;28;20046;-79
2021/07/21 06:51:11;;;;;;;9.60;5.60;;;18.80;99.90;;;;;;5099274;28;20031;-79
2021/07/21 06:53:36;;;;;;;;;;;18.90;99.90;;;;;;5047474;28;20070;-79
2021/07/21 06:56:03;;;;;;;7.90;5.25;;;18.90;99.90;;;;;;5056670;28;19958;-80
2021/07/21 06:58:29;;;;;;;9.85;5.90;;;19.10;99.90;;;;;;5063092;28;20046;-80
2021/07/21 07:00:55;;;;;;;8.95;5.25;;;19.30;99.90;;;;;;5098227;28;20039;-78
2021/07/21 07:03:21;;;;;;;7.68;5.10;;;19.50;99.90;;;;;;5063766;28;20432;-79
2021/07/21 07:05:48;;;;;;;9.95;5.25;;;19.60;99.90;;;;;;5090744;28;20039;-78
2021/07/21 07:08:14;;;;;;;7.28;4.97;;;19.50;99.90;;;;;;5077684;28;20135;-79
2021/07/21 07:10:40;;;;;;;7.60;5.15;;;19.60;99.90;;;;;;5072190;28;20035;-79
2021/07/21 07:13:06;;;;;;;7.32;4.80;;;19.50;99.90;;;;;;5080704;28;20074;-80
2021/07/21 07:15:32;;;;;;;7.55;4.85;;;19.40;99.90;;;;;;5069947;28;20536;-79
2021/07/21 07:17:59;;;;;;;8.90;4.70;;;19.30;99.90;;;;;;5109189;28;20104;-80
2021/07/21 07:20:25;;;;;;;7.03;4.80;;;19.30;99.90;;;;;;5077572;28;20099;-80
2021/07/21 07:22:51;;;;;;;7.55;4.70;;;19.30;99.90;;;;;;5100307;28;20118;-79
2021/07/21 07:25:18;;;;;;;5.78;4.25;;;19.40;99.90;;;;;;5089329;28;20059;-79
2021/07/21 07:27:43;;;;;;;6.05;4.30;;;19.60;99.90;;;;;;5054752;28;20047;-80
2021/07/21 07:30:11;;;;;;;;;;;19.90;99.90;;;;;;5096730;28;20070;-79
2021/07/21 07:32:38;;;;;;;6.13;4.38;;;20.20;99.90;;;;;;5098562;28;19930;-78
2021/07/21 07:35:04;;;;;;;5.90;4.70;;;20.40;99.90;;;;;;5073640;28;20126;-78
2021/07/21 07:37:31;;;;;;;7.88;4.85;;;20.60;99.90;;;;;;5056406;28;20133;-81
2021/07/21 07:39:57;;;;;;;7.65;4.70;;;20.60;99.90;;;;;;5096897;28;20481;-80
2021/07/21 07:42:23;;;;;;;7.30;4.85;;;20.60;99.90;;;;;;5094694;28;20042;-77
2021/07/21 07:44:49;;;;;;;7.57;4.57;;;20.60;99.90;;;;;;5086318;28;20066;-80
2021/07/21 07:47:15;;;;;;;6.65;4.25;;;20.80;99.90;;;;;;5086616;28;20114;-79
2021/07/21 07:49:42;;;;;;;6.15;4.35;;;21.00;99.90;;;;;;5087644;28;20036;-79
2021/07/21 07:52:08;;;;;;;6.38;4.40;;;21.10;99.90;;;;;;5082204;28;20048;-80
2021/07/21 07:54:33;;;;;;;6.50;4.30;;;21.10;99.90;;;;;;5076982;28;20038;-78
2021/07/21 07:56:59;;;;;;;;;;;21.10;99.90;;;;;;5088428;28;20039;-79
2021/07/21 07:59:25;;;;;;;5.57;3.97;;;21.10;99.90;;;;;;5083491;28;19916;-79
2021/07/21 08:01:51;;;;;;;5.38;4.05;;;21.20;99.90;;;;;;5072429;28;20066;-79
2021/07/21 08:04:17;;;;;;;8.75;4.53;;;21.30;99.90;;;;;;5101668;28;20036;-80
2021/07/21 08:06:48;;;;;;;6.88;4.20;;;21.30;99.90;;;;;;5067775;28;20043;-79
2021/07/21 08:09:14;;;;;;;6.97;4.30;;;21.50;99.70;;;;;;5071892;28;20046;-80
2021/07/21 08:11:48;;;;;;;5.93;4.57;;;21.50;98.90;;;;;;5070299;28;20059;-79
2021/07/21 08:14:18;;;;;;;5.85;4.53;;;21.60;99.90;;;;;;5083145;28;20060;-78
2021/07/21 08:16:44;;;;;;;7.60;5.15;;;21.50;99.50;;;;;;5055473;28;20055;-79
2021/07/21 08:19:11;;;;;;;6.82;4.78;;;21.60;99.40;;;;;;5100855;28;20500;-80
2021/07/21 08:21:37;;;;;;;6.80;4.55;;;21.70;99.90;;;;;;5052048;28;20076;-78
2021/07/21 08:24:04;;;;;;;6.80;4.45;;;21.80;97.30;;;;;;5098596;28;20040;-78
2021/07/21 08:26:30;;;;;;;7.55;4.90;;;21.80;98.10;;;;;;5106436;28;20035;-78
2021/07/21 08:28:56;;;;;;;6.85;4.93;;;21.90;98.70;;;;;;5077600;28;20043;-80
2021/07/21 08:31:21;;;;;;;6.45;4.55;;;22.10;97.70;;;;;;5082472;28;20040;-78
2021/07/21 08:33:47;;;;;;;6.72;5.00;;;22.20;97.20;;;;;;5102742;28;20039;-80
2021/07/21 08:36:13;;;;;;;6.72;4.63;;;22.20;96.60;;;;;;5079524;28;20047;-79
2021/07/21 08:38:40;;;;;;;8.50;4.97;;;22.10;96.50;;;;;;5107925;28;20127;-78
2021/07/21 08:41:07;;;;;;;7.55;5.00;;;22.10;97.40;;;;;;5082621;28;20036;-78
2021/07/21 08:43:35;;;;;;;7.93;5.40;;;22.20;97.80;;;;;;5084844;28;20032;-79
2021/07/21 08:46:04;;;;;;;7.68;5.32;;;22.30;97.30;;;;;;5069484;28;20036;-80
2021/07/21 08:48:30;;;;;;;8.32;5.30;;;22.40;97.10;;;;;;5089644;28;20242;-80
2021/07/21 08:50:56;;;;;;;6.30;4.63;;;22.50;97.00;;;;;;5091807;28;20066;-79
2021/07/21 08:53:22;;;;;;;6.95;4.90;;;22.50;95.10;;;;;;5111453;28;20031;-79
2021/07/21 08:55:49;;;;;;;6.57;5.00;;;22.60;94.80;;;;;;5076726;28;20035;-80
2021/07/21 08:58:19;;;;;;;7.88;5.30;;;22.60;94.10;;;;;;5091079;28;20050;-80
2021/07/21 09:00:45;;;;;;;6.15;4.65;;;22.60;94.20;;;;;;5093968;27;20047;-80
2021/07/21 09:03:12;;;;;;;8.82;5.63;;;22.60;93.10;;;;;;5072567;28;20032;-79
2021/07/21 09:05:38;;;;;;;7.47;5.50;;;22.40;94.20;;;;;;5110361;28;20473;-78
2021/07/21 09:08:07;;;;;;;8.77;5.13;;;22.50;95.10;;;;;;5076400;28;20058;-78
2021/07/21 09:10:33;;;;;;;9.07;5.88;;;22.70;95.60;;;;;;5094729;28;20035;-79
2021/07/21 09:13:03;;;;;;;8.73;5.28;;;22.80;93.90;;;;;;5078227;28;20545;-79
2021/07/21 09:15:29;;;;;;;7.70;5.18;;;22.80;91.90;;;;;;5072834;28;20056;-79
2021/07/21 09:18:09;;;;;;;8.18;5.40;;;22.70;92.60;;;;;;5084018;28;20434;-79
2021/07/21 09:20:40;;;;;;;8.60;5.90;;;22.80;94.50;;;;;;5107761;28;20066;-78
2021/07/21 09:23:07;;;;;;;8.52;5.28;;;23.00;93.20;;;;;;5088688;28;20044;-78
2021/07/21 09:25:35;;;;;;;8.43;6.07;;;23.00;94.00;;;;;;5093786;27;20176;-79
2021/07/21 09:28:11;;;;;;;7.95;5.38;;;23.20;94.70;;;;;;5090226;28;20031;-79
2021/07/21 09:30:38;;;;;;;9.45;5.65;;;23.30;93.50;;;;;;5083429;28;20044;-77
2021/07/21 09:33:08;;;;;;;8.38;5.57;;;23.30;93.00;;;;;;5092934;28;20044;-79
2021/07/21 09:35:46;;;;;;;9.43;5.55;;;23.20;93.70;;;;;;5096156;28;20157;-78
2021/07/21 09:38:28;;;;;;;7.20;5.57;;;23.20;93.60;;;;;;5084291;28;20075;-78
2021/07/21 09:41:04;;;;;;;9.35;6.32;;;23.20;93.60;;;;;;5109617;28;20048;-78
2021/07/21 09:43:34;;;;;;;9.60;6.17;;;23.20;92.80;;;;;;5091586;28;20096;-78
2021/07/21 09:46:12;;;;;;;10.35;6.10;;;23.20;93.30;;;;;;5108153;28;20039;-79
2021/07/21 09:48:39;;;;;;;8.23;5.10;;;23.20;94.70;;;;;;5110905;28;20051;-79
2021/07/21 09:51:05;;;;;;;7.90;5.68;;;23.40;93.20;;;;;;5090036;28;20035;-80
2021/07/21 09:53:40;;;;;;;8.07;5.55;;;23.30;92.60;;;;;;5081463;28;20071;-77
2021/07/21 09:56:07;;;;;;;9.48;5.75;;;23.30;92.20;;;;;;5105540;28;20039;-78
2021/07/21 09:58:36;;;;;;;6.93;5.35;;;23.30;92.80;;;;;;5088295;28;20042;-78
2021/07/21 10:01:04;;;;;;;9.15;5.97;;;23.40;93.00;;;;;;5087520;28;20040;-78
2021/07/21 10:03:34;;;;;;;10.52;5.63;;;23.50;91.40;;;;;;5089902;28;20067;-78
2021/07/21 10:06:11;;;;;;;8.75;5.97;;;23.60;90.50;;;;;;5080346;28;20051;-79
2021/07/21 10:08:48;;;;;;;12.23;5.60;;;23.60;91.20;;;;;;5103576;28;20189;-79
2021/07/21 10:11:27;;;;;;;8.77;5.80;;;23.80;91.60;;;;;;5104801;28;20040;-79
2021/07/21 10:14:02;;;;;;;9.18;4.63;;;24.00;90.60;;;;;;5106414;28;20043;-79
2021/07/21 10:16:32;;;;;;;8.07;5.75;;;24.10;90.80;;;;;;5103642;28;20053;-80
2021/07/21 10:19:05;;;;;;;7.55;5.30;;;24.00;90.70;;;;;;5107039;27;20042;-77
2021/07/21 10:21:31;;;;;;;7.25;5.03;;;24.00;88.30;;;;;;5113532;27;20039;-79
2021/07/21 10:23:57;;;;;;;9.70;5.30;;;23.80;90.30;;;;;;5100481;28;20105;-80
2021/07/21 10:26:27;;;;;;;6.90;5.00;;;23.80;90.60;;;;;;5110682;28;20048;-79
2021/07/21 10:28:57;;;;;;;8.40;5.15;;;23.60;91.00;;;;;;5058389;28;20052;-79
2021/07/21 10:31:23;;;;;;;7.25;5.18;;;23.60;91.40;;;;;;5084934;28;20050;-79
2021/07/21 10:33:50;;;;;;;8.45;5.70;;;23.60;90.90;;;;;;5101841;28;20043;-78
2021/07/21 10:36:16;;;;;;;8.30;6.05;;;23.50;91.00;;;;;;5059266;28;20047;-77
2021/07/21 10:38:43;;;;;;;7.28;5.75;;;23.60;90.60;;;;;;5099877;28;20337;-79
2021/07/21 10:41:10;;;;;;;8.55;6.00;;;23.70;90.60;;;;;;5107897;28;20069;-78
2021/07/21 10:43:36;;;;;;;8.65;6.20;;;23.80;90.80;;;;;;5106244;28;20040;-79
2021/07/21 10:46:03;;;;;;;11.00;6.85;;;24.00;91.50;;;;;;5085173;28;20555;-78
2021/07/21 10:48:53;;;;;;;8.82;6.18;;;24.20;91.30;;;;;;5068367;28;20037;-78
2021/07/21 10:51:38;;;;;;;9.07;6.20;;;24.30;91.00;;;;;;5075853;28;20036;-78
2021/07/21 10:54:13;;;;;;;10.07;6.10;;;24.40;91.30;;;;;;5107987;28;20047;-79
2021/07/21 10:59:23;;;;;;;9.30;5.97;;;24.20;91.00;;;;;;5098077;28;20180;-78
2021/07/21 11:01:59;;;;;;;11.40;6.82;;;23.90;91.50;;;;;;5103655;28;20536;-79
2021/07/21 11:04:42;;;;;;;10.32;6.03;;;23.90;91.80;;;;;;5071494;28;20093;-78
2021/07/21 11:07:07;;;;;;;8.75;5.35;;;24.00;92.30;;;;;;5087611;28;20127;-78
2021/07/21 11:09:38;;;;;;;7.88;5.95;;;24.00;92.50;;;;;;5089511;28;20130;-77
2021/07/21 11:12:04;;;;;;;8.65;5.32;;;24.00;92.80;;;;;;5100937;28;20100;-78
2021/07/21 11:14:34;;;;;;;9.07;6.38;;;24.00;92.30;;;;;;5101755;28;20042;-77
2021/07/21 11:17:06;;;;;;;8.15;6.30;;;23.90;92.50;;;;;;5088402;28;20050;-78
2021/07/21 11:19:52;;;;;;;9.70;6.43;;;23.90;93.40;;;;;;5108282;28;20404;-79
2021/07/21 11:22:25;;;;;;;9.68;6.35;;;24.10;93.70;;;;;;5101989;28;20036;-78
2021/07/21 11:25:11;;;;;;;10.48;6.88;;;24.60;92.90;;;;;;5082758;28;20563;-79
2021/07/21 11:27:44;;;;;;;9.43;6.78;;;24.80;92.10;;;;;;5106520;27;20051;-78
2021/07/21 11:30:36;;;;;;;9.52;6.65;;;24.70;92.10;;;;;;5103635;28;20039;-75
2021/07/21 11:33:39;;;;;;;7.85;6.13;;;24.50;90.90;;;;;;5098565;28;20413;-78
2021/07/21 11:36:05;;;;;;;11.38;6.30;;;24.30;91.20;;;;;;5095365;28;20035;-79
2021/07/21 11:38:46;;;;;;;9.45;5.72;;;24.00;91.30;;;;;;5091761;28;20116;-78
2021/07/21 11:41:45;;;;;;;8.82;6.45;;;23.80;93.20;;;;;;5082768;28;20050;-78
2021/07/21 11:44:38;;;;;;;9.73;6.22;;;23.80;92.90;;;;;;5071944;28;20130;-79
2021/07/21 11:47:09;;;;;;;8.63;5.82;;;24.20;92.90;;;;;;5073146;28;20525;-77
2021/07/21 11:49:35;;;;;;;9.98;5.90;;;24.60;92.70;;;;;;5094004;28;20095;-80
2021/07/21 11:52:06;;;;;;;7.82;5.43;;;25.00;92.10;;;;;;5092927;28;20064;-77
2021/07/21 11:54:37;;;;;;;10.00;6.00;;;25.10;91.70;;;;;;5075470;28;20074;-78
2021/07/21 11:57:06;;;;;;;8.52;6.20;;;25.10;91.00;;;;;;5089481;28;20050;-78
2021/07/21 11:59:53;;;;;;;9.52;6.93;;;25.00;90.70;;;;;;5064895;28;20054;-78
2021/07/21 12:02:19;;;;;;;9.15;6.25;;;24.80;90.90;;;;;;5082354;28;20043;-79
2021/07/21 12:04:51;;;;;;;9.95;6.28;;;24.60;91.30;;;;;;5066159;28;20040;-79
2021/07/21 12:07:19;;;;;;;8.70;6.60;;;24.50;91.90;;;;;;5090033;28;20039;-79
2021/07/21 12:09:47;;;;;;;9.57;6.47;;;24.30;92.60;;;;;;5089368;28;20488;-79
2021/07/21 12:12:17;;;;;;;9.88;6.72;;;24.20;93.50;;;;;;5085010;28;20043;-78
2021/07/21 12:14:54;;;;;;;9.07;6.47;;;24.20;93.40;;;;;;5096979;28;20032;-79
2021/07/21 12:17:23;;;;;;;9.98;6.82;;;24.10;94.00;;;;;;5089036;28;20048;-78
2021/07/21 12:20:11;;;;;;;10.15;6.60;;;24.10;94.30;;;;;;5106048;28;20047;-79
2021/07/21 12:22:39;;;;;;;8.98;6.38;;;24.20;94.30;;;;;;5098240;28;20044;-78
2021/07/21 12:25:17;;;;;;;7.97;5.80;;;24.20;94.80;;;;;;5104614;28;20126;-78
2021/07/21 12:27:45;;;;;;;9.00;6.85;;;24.10;95.20;;;;;;5108460;28;20031;-78
2021/07/21 12:30:19;;;;;;;9.00;6.05;;;24.00;95.60;;;;;;5107307;28;20396;-78
2021/07/21 12:32:46;;;;;;;9.32;6.25;;;23.90;95.70;;;;;;5056222;28;20052;-79
2021/07/21 12:35:20;;;;;;;8.07;6.22;;;23.90;96.70;;;;;;5046217;28;20044;-77
2021/07/21 12:37:51;;;;;;;9.05;6.38;;;23.80;97.70;;;;;;5080167;28;20028;-78
2021/07/21 12:40:31;;;;;;;9.95;6.97;;;23.80;98.40;;;;;;5084541;28;20420;-78
2021/07/21 12:43:00;;;;;;;8.55;5.90;;;24.00;99.30;;;;;;5085607;28;20068;-78
2021/07/21 12:45:28;;;;;;;9.00;5.82;;;24.10;98.90;;;;;;5086716;28;20040;-77
2021/07/21 12:47:57;;;;;;;9.77;6.57;;;24.50;98.40;;;;;;5085536;28;20048;-78
2021/07/21 12:50:42;;;;;;;10.00;6.20;;;24.70;97.20;;;;;;5083784;28;20036;-78
2021/07/21 12:53:17;;;;;;;9.98;6.18;;;24.80;96.60;;;;;;5072227;28;20409;-80
2021/07/21 12:55:46;;;;;;;7.63;5.68;;;24.70;95.60;;;;;;5082191;28;20307;-79
2021/07/21 12:58:18;;;;;;;8.57;5.65;;;24.40;94.10;;;;;;5083474;28;20501;-79
2021/07/21 13:00:49;;;;;;;8.70;6.18;;;24.10;93.60;;;;;;5075629;28;20040;-79